Time;durP1;ratioP1;P1;durP2;ratioP2;P2;SDS_P1;SDS_P2;PMS_P1;PMS_P2;Temp;Humidity;BMP_temperature;BMP_pressure;BME280_temperature;BME280_humidity;BME280_pressure;Samples;Min_cycle;Max_cycle;Signal;HPM_P1;HPM_P2
2022/11/17 00:01:22;;;;;;;3.03;2.70;;;5.00;99.90;;;;;;5117732;27;20225;-78
2022/11/17 00:03:50;;;;;;;3.73;2.90;;;5.00;99.90;;;;;;5123243;27;20220;-79
2022/11/17 00:06:20;;;;;;;3.43;2.80;;;5.00;99.90;;;;;;5119908;27;20223;-79
2022/11/17 00:08:47;;;;;;;3.47;2.73;;;5.00;99.90;;;;;;5119244;28;20217;-78
2022/11/17 00:11:14;;;;;;;4.67;2.90;;;5.00;99.90;;;;;;5119419;27;20586;-79
2022/11/17 00:16:25;;;;;;;3.20;2.60;;;5.00;99.90;;;;;;5117854;27;20226;-79
2022/11/17 00:21:38;;;;;;;5.20;3.27;;;5.00;99.90;;;;;;5114908;27;20784;-78
2022/11/17 00:24:05;;;;;;;4.43;3.80;;;5.00;99.90;;;;;;5117732;27;20222;-79
2022/11/17 00:26:34;;;;;;;4.03;3.10;;;5.00;99.90;;;;;;5110131;27;20782;-79
2022/11/17 00:29:03;;;;;;;4.17;3.53;;;5.00;99.90;;;;;;5106315;28;20218;-79
2022/11/17 00:34:18;;;;;;;5.73;3.63;;;4.90;99.90;;;;;;5094903;27;20706;-78
2022/11/17 00:36:49;;;;;;;4.10;3.40;;;4.90;99.90;;;;;;5099577;27;20219;-78
2022/11/17 00:39:17;;;;;;;5.87;3.17;;;4.90;99.90;;;;;;5091875;28;20486;-80
2022/11/17 00:41:44;;;;;;;4.00;3.50;;;4.90;99.90;;;;;;5092284;27;20302;-79
2022/11/17 00:44:12;;;;;;;4.40;4.00;;;4.90;99.90;;;;;;5103053;27;20247;-80
2022/11/17 00:46:39;;;;;;;4.13;3.60;;;4.90;99.90;;;;;;5098074;27;20249;-79
2022/11/17 00:49:07;;;;;;;5.03;3.60;;;4.90;99.90;;;;;;5104947;28;20214;-79
2022/11/17 00:51:34;;;;;;;4.77;4.00;;;4.90;99.90;;;;;;5102854;27;20231;-80
2022/11/17 00:54:02;;;;;;;4.13;3.60;;;4.90;99.90;;;;;;5107053;28;20210;-79
2022/11/17 00:56:29;;;;;;;5.10;3.97;;;4.90;99.90;;;;;;5103539;27;20243;-79
2022/11/17 00:58:56;;;;;;;5.03;3.57;;;4.90;99.90;;;;;;5101210;27;20784;-80
2022/11/17 01:01:23;;;;;;;4.13;3.73;;;4.80;99.90;;;;;;5100495;27;20256;-80
2022/11/17 01:03:50;;;;;;;6.23;3.50;;;4.80;99.90;;;;;;5108272;27;20227;-80
2022/11/17 01:06:19;;;;;;;4.37;3.97;;;4.80;99.90;;;;;;5096452;28;20225;-78
2022/11/17 01:08:46;;;;;;;5.47;4.43;;;4.80;99.90;;;;;;5101623;28;20246;-79
2022/11/17 01:11:16;;;;;;;5.70;4.03;;;4.80;99.90;;;;;;5103826;27;20225;-79
2022/11/17 01:13:44;;;;;;;5.53;4.00;;;4.70;99.90;;;;;;5104940;27;20221;-78
2022/11/17 01:16:13;;;;;;;4.83;4.30;;;4.70;99.90;;;;;;5105776;27;20233;-78
2022/11/17 01:18:41;;;;;;;4.40;4.00;;;4.70;99.90;;;;;;5109222;27;20412;-79
2022/11/17 01:21:10;;;;;;;4.57;4.17;;;4.70;99.90;;;;;;5096552;27;20240;-78
2022/11/17 01:23:37;;;;;;;5.10;4.17;;;4.70;99.90;;;;;;5098539;28;20215;-78
2022/11/17 01:26:06;;;;;;;5.87;4.67;;;4.70;99.90;;;;;;5098976;28;20211;-78
2022/11/17 01:28:35;;;;;;;5.13;4.63;;;4.70;99.90;;;;;;5103142;28;20242;-78
2022/11/17 01:31:04;;;;;;;5.93;4.60;;;4.70;99.90;;;;;;5102174;28;20227;-79
2022/11/17 01:33:30;;;;;;;5.13;4.40;;;4.70;99.90;;;;;;5093808;27;20231;-78
2022/11/17 01:36:01;;;;;;;5.77;4.70;;;4.70;99.90;;;;;;5089411;27;20827;-79
2022/11/17 01:38:28;;;;;;;5.13;4.63;;;4.70;99.90;;;;;;5107831;27;20871;-79
2022/11/17 01:40:57;;;;;;;5.47;4.53;;;4.70;99.90;;;;;;5093182;28;20220;-79
2022/11/17 01:43:40;;;;;;;5.80;5.20;;;4.70;99.90;;;;;;5111526;27;22403;-79
2022/11/17 01:46:15;;;;;;;5.80;5.17;;;4.70;99.90;;;;;;5101479;28;20320;-78
2022/11/17 01:48:43;;;;;;;5.30;4.80;;;4.70;99.90;;;;;;5105792;28;20242;-78
2022/11/17 01:51:13;;;;;;;4.93;4.43;;;4.60;99.90;;;;;;5102851;28;20226;-79
2022/11/17 01:53:41;;;;;;;5.90;5.00;;;4.60;99.90;;;;;;5098142;27;20258;-79
2022/11/17 01:56:12;;;;;;;6.00;5.07;;;4.60;99.90;;;;;;5102980;27;20229;-79
2022/11/17 01:58:46;;;;;;;6.67;5.00;;;4.60;99.90;;;;;;5104724;28;20214;-79
2022/11/17 02:01:16;;;;;;;5.43;4.57;;;4.60;99.90;;;;;;5099732;28;20293;-79
2022/11/17 02:03:44;;;;;;;6.07;5.30;;;4.60;99.90;;;;;;5100680;27;20227;-79
2022/11/17 02:06:15;;;;;;;6.70;5.07;;;4.60;99.90;;;;;;5098708;28;20226;-79
2022/11/17 02:08:45;;;;;;;4.90;4.40;;;4.60;99.90;;;;;;5103111;27;20857;-79
2022/11/17 02:11:15;;;;;;;6.30;5.10;;;4.60;99.90;;;;;;5097696;28;20325;-78
2022/11/17 02:13:43;;;;;;;5.80;5.20;;;4.60;99.90;;;;;;5096919;27;20233;-79
2022/11/17 02:16:12;;;;;;;6.07;5.13;;;4.50;99.90;;;;;;5105046;27;20309;-78
2022/11/17 02:18:39;;;;;;;5.80;5.07;;;4.50;99.90;;;;;;5102338;27;20218;-79
2022/11/17 02:21:43;;;;;;;6.73;5.00;;;4.50;99.90;;;;;;5103407;28;20234;-79
2022/11/17 02:24:38;;;;;;;5.20;4.70;;;4.40;99.90;;;;;;5088136;27;20227;-79
2022/11/17 02:27:40;;;;;;;5.37;4.87;;;4.50;99.90;;;;;;5102389;27;20225;-79
2022/11/17 02:30:11;;;;;;;5.17;4.67;;;4.40;99.90;;;;;;5093426;28;20892;-79
2022/11/17 02:32:48;;;;;;;6.27;4.77;;;4.40;99.90;;;;;;5095429;27;20219;-79
2022/11/17 02:35:23;;;;;;;5.87;5.33;;;4.40;99.90;;;;;;5096552;28;20285;-80
2022/11/17 02:37:58;;;;;;;5.97;4.50;;;4.40;99.90;;;;;;5102852;28;20309;-79
2022/11/17 02:40:30;;;;;;;5.33;4.83;;;4.40;99.90;;;;;;5103660;28;20241;-79
2022/11/17 02:45:50;;;;;;;5.37;4.87;;;4.30;99.90;;;;;;5097760;28;20300;-80
2022/11/17 02:48:25;;;;;;;5.90;5.30;;;4.30;99.90;;;;;;5099757;27;20221;-80
2022/11/17 02:50:53;;;;;;;5.87;5.23;;;4.30;99.90;;;;;;5109405;27;20767;-80
2022/11/17 02:53:22;;;;;;;6.13;5.53;;;4.30;99.90;;;;;;5093586;28;20314;-79
2022/11/17 02:55:50;;;;;;;6.43;5.43;;;4.30;99.90;;;;;;5103157;27;20218;-79
2022/11/17 02:58:19;;;;;;;6.33;5.20;;;4.30;99.90;;;;;;5103647;28;20215;-80
2022/11/17 03:01:02;;;;;;;5.90;5.30;;;4.20;99.90;;;;;;5108187;27;20226;-79
2022/11/17 03:03:42;;;;;;;5.90;5.13;;;4.20;99.90;;;;;;5097308;28;20234;-80
2022/11/17 03:06:19;;;;;;;5.87;4.90;;;4.20;99.90;;;;;;5100251;28;20226;-79
2022/11/17 03:08:52;;;;;;;5.40;4.90;;;4.20;99.90;;;;;;5100694;28;20226;-79
2022/11/17 03:11:23;;;;;;;6.47;5.00;;;4.10;99.90;;;;;;5103479;28;20228;-79
2022/11/17 03:13:56;;;;;;;6.20;4.93;;;4.10;99.90;;;;;;5101048;28;20233;-79
2022/11/17 03:16:30;;;;;;;5.20;4.70;;;4.10;99.90;;;;;;5101182;28;20214;-80
2022/11/17 03:19:10;;;;;;;5.50;4.70;;;4.10;99.90;;;;;;5098060;28;20232;-79
2022/11/17 03:21:41;;;;;;;5.17;4.67;;;4.10;99.90;;;;;;5102431;28;20224;-79
2022/11/17 03:24:14;;;;;;;5.90;5.30;;;4.10;99.90;;;;;;5100659;28;20591;-80
2022/11/17 03:26:49;;;;;;;5.93;5.33;;;4.10;99.90;;;;;;5098346;28;20219;-80
2022/11/17 03:29:20;;;;;;;5.47;4.97;;;4.10;99.90;;;;;;5101770;27;20227;-80
2022/11/17 03:31:50;;;;;;;5.53;4.93;;;4.10;99.90;;;;;;5097812;27;20214;-79
2022/11/17 03:34:22;;;;;;;6.13;4.90;;;4.10;99.90;;;;;;5103080;28;20221;-79
2022/11/17 03:36:53;;;;;;;5.90;5.03;;;4.00;99.90;;;;;;5102241;28;20219;-78
2022/11/17 03:39:23;;;;;;;5.57;5.00;;;4.10;99.90;;;;;;5103992;27;20230;-79
2022/11/17 03:41:54;;;;;;;5.90;5.30;;;4.00;99.90;;;;;;5098676;28;20218;-79
2022/11/17 03:44:26;;;;;;;7.63;5.43;;;4.00;99.90;;;;;;5102785;27;20218;-79
2022/11/17 03:46:55;;;;;;;6.40;5.47;;;4.10;99.90;;;;;;5104002;28;20214;-79
2022/11/17 03:49:29;;;;;;;5.77;5.17;;;4.00;99.90;;;;;;5107100;28;20238;-80
2022/11/17 03:51:56;;;;;;;5.53;5.03;;;3.90;99.90;;;;;;5098639;28;20221;-79
2022/11/17 03:54:23;;;;;;;6.03;5.13;;;3.90;99.90;;;;;;5103365;28;20876;-80
2022/11/17 03:56:55;;;;;;;5.40;4.83;;;3.90;99.90;;;;;;5101631;28;20308;-79
2022/11/17 03:59:27;;;;;;;6.03;5.40;;;3.90;99.90;;;;;;5105405;28;20769;-79
2022/11/17 04:01:54;;;;;;;5.87;5.27;;;3.90;99.90;;;;;;5098989;28;20228;-78
2022/11/17 04:04:22;;;;;;;5.70;4.80;;;3.90;99.90;;;;;;5116112;27;20248;-78
2022/11/17 04:06:51;;;;;;;6.53;5.47;;;3.90;99.90;;;;;;5097304;27;20886;-78
2022/11/17 04:09:18;;;;;;;6.00;5.40;;;3.90;99.90;;;;;;5101929;28;20236;-79
2022/11/17 04:17:14;;;;;;;6.67;5.43;;;3.90;99.90;;;;;;5096839;28;20236;-79
2022/11/17 04:19:41;;;;;;;9.10;4.80;;;3.90;99.90;;;;;;5099958;27;20215;-79
2022/11/17 04:22:07;;;;;;;6.80;5.63;;;3.90;99.90;;;;;;5101968;27;20225;-79
2022/11/17 04:24:34;;;;;;;5.93;5.33;;;3.90;99.90;;;;;;5100287;28;20224;-79
2022/11/17 04:29:46;;;;;;;6.60;5.60;;;3.90;99.90;;;;;;5096991;28;20231;-78
2022/11/17 04:32:13;;;;;;;6.10;5.40;;;3.80;99.90;;;;;;5100588;28;20227;-78
2022/11/17 04:34:47;;;;;;;5.80;5.20;;;3.80;99.90;;;;;;5100723;28;20249;-79
2022/11/17 04:37:16;;;;;;;7.03;4.93;;;3.80;99.90;;;;;;5101515;27;20737;-79
2022/11/17 04:39:44;;;;;;;7.37;5.57;;;3.80;99.90;;;;;;5105115;27;20283;-79
2022/11/17 04:42:10;;;;;;;6.30;5.70;;;3.80;99.90;;;;;;5105013;27;20238;-77
2022/11/17 04:44:36;;;;;;;6.20;5.43;;;3.80;99.90;;;;;;5106953;27;20217;-78
2022/11/17 04:47:05;;;;;;;7.33;5.63;;;3.80;99.90;;;;;;5106464;28;20256;-77
2022/11/17 04:49:32;;;;;;;7.33;5.73;;;3.80;99.90;;;;;;5106775;28;20673;-77
2022/11/17 04:51:59;;;;;;;7.63;5.90;;;3.80;99.90;;;;;;5100735;28;20878;-77
2022/11/17 04:54:26;;;;;;;5.63;5.00;;;3.80;99.90;;;;;;5098903;28;20267;-76
2022/11/17 04:56:54;;;;;;;6.30;5.50;;;3.90;99.90;;;;;;5105346;28;20225;-77
2022/11/17 04:59:21;;;;;;;6.10;5.30;;;3.80;99.90;;;;;;5106324;27;20229;-77
2022/11/17 05:01:48;;;;;;;6.67;5.97;;;3.80;99.90;;;;;;5093338;27;20214;-77
2022/11/17 05:04:54;;;;;;;6.70;6.00;;;3.80;99.90;;;;;;5107051;27;20930;-77
2022/11/17 05:07:06;;;;;;;6.43;5.73;;;3.80;99.90;;;;;;5111587;27;20320;-77
2022/11/17 05:09:33;;;;;;;6.70;5.93;;;3.80;99.90;;;;;;5101428;27;20301;-76
2022/11/17 05:14:46;;;;;;;8.13;6.30;;;3.80;99.90;;;;;;5095628;28;20236;-77
2022/11/17 05:17:11;;;;;;;7.00;6.13;;;3.80;99.90;;;;;;5102662;27;20674;-77
2022/11/17 05:19:41;;;;;;;6.17;5.57;;;3.80;99.90;;;;;;5106108;27;20274;-77
2022/11/17 05:24:49;;;;;;;7.70;6.50;;;3.70;99.90;;;;;;5103988;28;20217;-79
2022/11/17 05:27:16;;;;;;;7.50;6.17;;;3.70;99.90;;;;;;5105941;27;20229;-79
2022/11/17 05:29:43;;;;;;;8.50;6.50;;;3.70;99.90;;;;;;5103839;28;20229;-79
2022/11/17 05:32:09;;;;;;;7.43;6.47;;;3.70;99.90;;;;;;5103519;27;20678;-79
2022/11/17 05:34:36;;;;;;;8.63;6.43;;;3.60;99.90;;;;;;5103205;28;20221;-80
2022/11/17 05:37:05;;;;;;;8.53;7.07;;;3.60;99.90;;;;;;5097538;27;20237;-79
2022/11/17 05:39:32;;;;;;;8.50;6.80;;;3.60;99.90;;;;;;5091467;27;20228;-79
2022/11/17 05:41:58;;;;;;;8.43;6.50;;;3.60;99.90;;;;;;5096724;27;20229;-78
2022/11/17 05:44:25;;;;;;;8.83;7.60;;;3.60;99.90;;;;;;5100756;27;20230;-78
2022/11/17 05:46:52;;;;;;;8.10;6.83;;;3.60;99.90;;;;;;5098403;27;20228;-79
2022/11/17 05:49:18;;;;;;;8.20;7.20;;;3.60;99.90;;;;;;5101598;27;20226;-79
2022/11/17 05:51:45;;;;;;;7.13;6.43;;;3.70;99.90;;;;;;5100554;27;20216;-79
2022/11/17 05:54:13;;;;;;;8.40;7.00;;;3.60;99.90;;;;;;5098910;27;20325;-79
2022/11/17 05:56:43;;;;;;;8.07;6.70;;;3.60;99.90;;;;;;5103123;27;20219;-79
2022/11/17 05:59:16;;;;;;;7.97;7.17;;;3.60;99.90;;;;;;5102292;28;20222;-79
2022/11/17 06:01:48;;;;;;;7.60;6.80;;;3.60;99.90;;;;;;5097325;27;20230;-79
2022/11/17 06:04:19;;;;;;;8.33;7.40;;;3.60;99.90;;;;;;5101157;27;20232;-79
2022/11/17 06:06:47;;;;;;;7.93;7.13;;;3.60;99.90;;;;;;5103714;27;20233;-79
2022/11/17 06:09:15;;;;;;;8.73;7.83;;;3.60;99.90;;;;;;5100212;27;20773;-79
2022/11/17 06:11:42;;;;;;;8.37;6.83;;;3.60;99.90;;;;;;5103882;27;20252;-79
2022/11/17 06:14:09;;;;;;;8.20;7.17;;;3.60;99.90;;;;;;5100332;28;20218;-79
2022/11/17 06:16:40;;;;;;;7.90;7.10;;;3.60;99.90;;;;;;5099611;28;20223;-79
2022/11/17 06:19:09;;;;;;;9.43;7.33;;;3.60;99.90;;;;;;5101124;28;20280;-79
2022/11/17 06:21:36;;;;;;;8.73;7.80;;;3.60;99.90;;;;;;5101575;28;20897;-79
2022/11/17 06:24:08;;;;;;;8.77;7.47;;;3.60;99.90;;;;;;5106567;27;20224;-79
2022/11/17 06:26:36;;;;;;;8.60;7.47;;;3.60;99.90;;;;;;5076651;28;20229;-79
2022/11/17 06:29:04;;;;;;;8.17;7.37;;;3.60;99.90;;;;;;5089448;28;20221;-79
2022/11/17 06:31:32;;;;;;;9.20;7.50;;;3.60;99.90;;;;;;5125800;27;20226;-80
2022/11/17 06:34:00;;;;;;;8.70;7.70;;;3.60;99.90;;;;;;5098906;27;20222;-80
2022/11/17 06:36:27;;;;;;;8.23;7.33;;;3.60;99.90;;;;;;5103515;27;20226;-79
2022/11/17 06:38:54;;;;;;;10.60;7.33;;;3.60;99.90;;;;;;5103270;27;20229;-80
2022/11/17 06:41:21;;;;;;;8.60;7.50;;;3.60;99.90;;;;;;5107434;27;20252;-80
2022/11/17 06:43:49;;;;;;;8.33;7.33;;;3.60;99.90;;;;;;5102338;27;20683;-79
2022/11/17 06:46:16;;;;;;;13.47;7.47;;;3.50;99.90;;;;;;5100354;27;20371;-79
2022/11/17 06:48:42;;;;;;;7.83;6.83;;;3.60;99.90;;;;;;5104235;27;20861;-80
2022/11/17 06:51:09;;;;;;;7.70;6.90;;;3.60;99.90;;;;;;5105513;27;20308;-80
2022/11/17 06:53:36;;;;;;;8.20;7.33;;;3.50;99.90;;;;;;5105452;27;20228;-80
2022/11/17 06:56:07;;;;;;;7.97;7.07;;;3.50;99.90;;;;;;5113504;27;20223;-79
2022/11/17 06:58:35;;;;;;;7.87;7.07;;;3.50;99.90;;;;;;5088876;27;20714;-80
2022/11/17 07:01:05;;;;;;;7.33;6.63;;;3.60;99.90;;;;;;5103085;27;20282;-79
2022/11/17 07:03:33;;;;;;;9.03;7.20;;;3.60;99.90;;;;;;5077083;28;20253;-79
2022/11/17 07:06:01;;;;;;;8.13;6.80;;;3.50;99.90;;;;;;5107115;27;20563;-80
2022/11/17 07:08:28;;;;;;;7.90;6.90;;;3.50;99.90;;;;;;5099882;27;20305;-80
2022/11/17 07:10:55;;;;;;;7.90;7.10;;;3.50;99.90;;;;;;5104568;28;20256;-79
2022/11/17 07:13:23;;;;;;;9.20;7.47;;;3.50;99.90;;;;;;5098957;27;20214;-80
2022/11/17 07:15:50;;;;;;;10.23;7.50;;;3.50;99.90;;;;;;5110873;27;20221;-78
2022/11/17 07:18:20;;;;;;;8.07;7.27;;;3.40;99.90;;;;;;5102086;27;20274;-80
2022/11/17 07:20:48;;;;;;;8.60;7.30;;;3.50;99.90;;;;;;5105041;28;20218;-79
2022/11/17 07:23:15;;;;;;;7.87;7.07;;;3.50;99.90;;;;;;5098672;28;20248;-78
2022/11/17 07:25:42;;;;;;;8.47;6.53;;;3.50;99.90;;;;;;5107482;27;20230;-80
2022/11/17 07:28:08;;;;;;;8.57;7.27;;;3.50;99.90;;;;;;5114938;27;20225;-80
2022/11/17 07:30:35;;;;;;;8.17;7.20;;;3.50;99.90;;;;;;5115964;27;20311;-79
2022/11/17 07:33:02;;;;;;;8.67;7.27;;;3.50;99.90;;;;;;5099583;27;20650;-80
2022/11/17 07:35:30;;;;;;;7.73;6.70;;;3.50;99.90;;;;;;5102895;28;20226;-80
2022/11/17 07:38:00;;;;;;;7.43;6.73;;;3.50;99.90;;;;;;5101118;28;20224;-80
2022/11/17 07:40:27;;;;;;;11.07;7.73;;;3.40;99.90;;;;;;5112244;27;20739;-80
2022/11/17 07:42:53;;;;;;;11.33;7.10;;;3.50;99.90;;;;;;5104148;28;20233;-79
2022/11/17 07:45:21;;;;;;;7.70;6.53;;;3.50;99.90;;;;;;5102661;27;20705;-80
2022/11/17 07:47:54;;;;;;;7.57;6.57;;;3.50;99.90;;;;;;5110145;27;20245;-79
2022/11/17 07:50:21;;;;;;;7.50;6.70;;;3.50;99.90;;;;;;5105858;27;20219;-79
2022/11/17 07:52:50;;;;;;;7.90;7.10;;;3.50;99.90;;;;;;5100090;28;20225;-80
2022/11/17 07:55:17;;;;;;;7.90;6.47;;;3.50;99.90;;;;;;5099797;28;20229;-79
2022/11/17 07:57:44;;;;;;;8.13;6.43;;;3.60;99.90;;;;;;5100476;27;20803;-80
2022/11/17 08:00:13;;;;;;;9.53;6.90;;;3.50;99.90;;;;;;5104366;28;20225;-80
2022/11/17 08:02:40;;;;;;;8.23;6.33;;;3.50;99.90;;;;;;5111256;27;20225;-79
2022/11/17 08:05:07;;;;;;;7.70;6.60;;;3.50;99.90;;;;;;5102971;27;20263;-79
2022/11/17 08:07:34;;;;;;;8.33;6.37;;;3.60;99.90;;;;;;5101659;28;20318;-79
2022/11/17 08:10:02;;;;;;;8.03;6.60;;;3.60;99.90;;;;;;5108998;28;20229;-79
2022/11/17 08:12:29;;;;;;;8.47;6.80;;;3.60;99.90;;;;;;5080719;28;20223;-80
2022/11/17 08:14:56;;;;;;;8.83;6.83;;;3.60;99.90;;;;;;5086107;28;20229;-79
2022/11/17 08:17:22;;;;;;;9.03;7.37;;;3.60;99.90;;;;;;5079758;28;20881;-79
2022/11/17 08:19:49;;;;;;;7.93;6.70;;;3.60;99.90;;;;;;5092536;27;20221;-79
2022/11/17 08:22:16;;;;;;;7.83;6.87;;;3.60;99.90;;;;;;5094549;28;20703;-80
2022/11/17 08:24:43;;;;;;;8.70;7.03;;;3.60;99.90;;;;;;5104858;27;20226;-77
2022/11/17 08:27:11;;;;;;;11.33;7.10;;;3.60;99.90;;;;;;5100752;27;20236;-76
2022/11/17 08:29:37;;;;;;;7.00;6.27;;;3.50;99.90;;;;;;5102178;28;20650;-76
2022/11/17 08:32:06;;;;;;;8.00;6.30;;;3.60;99.90;;;;;;5096474;27;20228;-77
2022/11/17 08:34:33;;;;;;;7.90;6.67;;;3.60;99.90;;;;;;5103790;27;20279;-77
2022/11/17 08:37:00;;;;;;;8.40;7.17;;;3.60;99.90;;;;;;5099279;28;20309;-78
2022/11/17 08:39:27;;;;;;;8.63;7.10;;;3.60;99.90;;;;;;5101451;28;20231;-77
2022/11/17 08:41:54;;;;;;;8.77;6.60;;;3.60;99.90;;;;;;5101413;27;20217;-78
2022/11/17 08:44:22;;;;;;;8.77;7.20;;;3.60;99.90;;;;;;5105756;27;20223;-77
2022/11/17 08:46:49;;;;;;;10.63;7.67;;;3.50;99.90;;;;;;5103786;27;20301;-77
2022/11/17 08:49:15;;;;;;;8.37;7.17;;;3.60;99.90;;;;;;5098112;28;20247;-77
2022/11/17 08:51:42;;;;;;;10.63;7.20;;;3.60;99.90;;;;;;5099288;28;20325;-78
2022/11/17 08:54:11;;;;;;;7.97;7.10;;;3.60;99.90;;;;;;5107620;28;20305;-77
2022/11/17 08:56:37;;;;;;;11.40;7.47;;;3.60;99.90;;;;;;5109966;27;20224;-78
2022/11/17 08:59:04;;;;;;;10.23;7.23;;;3.70;99.90;;;;;;5107218;27;20214;-78
2022/11/17 09:01:32;;;;;;;9.27;7.57;;;3.70;99.90;;;;;;5105987;27;20214;-77
2022/11/17 09:03:59;;;;;;;11.77;7.50;;;3.60;99.90;;;;;;5103598;28;20214;-78
2022/11/17 09:06:26;;;;;;;9.90;7.30;;;3.70;99.90;;;;;;5103983;28;20224;-77
2022/11/17 09:08:53;;;;;;;8.80;7.53;;;3.70;99.90;;;;;;5106230;27;20224;-77
2022/11/17 09:11:20;;;;;;;8.67;7.07;;;3.80;99.90;;;;;;5100825;28;20232;-77
2022/11/17 09:13:47;;;;;;;9.40;7.97;;;3.70;99.90;;;;;;5107956;27;20218;-78
2022/11/17 09:16:15;;;;;;;9.27;7.43;;;3.80;99.90;;;;;;5098343;28;20222;-77
2022/11/17 09:18:43;;;;;;;7.87;6.83;;;3.80;99.90;;;;;;5106021;28;20213;-78
2022/11/17 09:21:12;;;;;;;11.03;7.43;;;3.80;99.90;;;;;;5106499;27;20630;-77
2022/11/17 09:23:39;;;;;;;7.93;7.13;;;3.80;99.90;;;;;;5106462;27;20598;-77
2022/11/17 09:26:10;;;;;;;8.43;7.13;;;3.90;99.90;;;;;;5112078;27;20229;-78
2022/11/17 09:28:37;;;;;;;9.77;7.77;;;3.90;99.90;;;;;;5109953;27;20232;-78
2022/11/17 09:31:08;;;;;;;9.00;7.97;;;3.90;99.90;;;;;;5103033;27;20229;-77
2022/11/17 09:33:34;;;;;;;8.27;7.07;;;3.90;99.90;;;;;;5099557;28;20285;-78
2022/11/17 09:36:03;;;;;;;8.87;7.53;;;3.90;99.90;;;;;;5103755;28;20218;-78
2022/11/17 09:38:30;;;;;;;10.83;8.00;;;3.90;99.90;;;;;;5095748;28;20223;-78
2022/11/17 09:40:57;;;;;;;8.47;7.43;;;4.00;99.90;;;;;;5107945;27;20217;-78
2022/11/17 09:43:28;;;;;;;9.20;8.00;;;4.00;99.90;;;;;;5090307;27;20232;-77
2022/11/17 09:46:03;;;;;;;9.57;7.83;;;3.90;99.90;;;;;;5093177;27;20226;-76
2022/11/17 09:48:39;;;;;;;10.77;8.10;;;3.90;99.90;;;;;;5095846;27;20218;-77
2022/11/17 09:51:12;;;;;;;8.33;7.50;;;4.00;99.90;;;;;;5101736;27;20878;-78
2022/11/17 09:53:45;;;;;;;10.70;7.93;;;4.00;99.90;;;;;;5102713;27;20214;-77
2022/11/17 09:56:13;;;;;;;10.30;7.90;;;4.00;99.90;;;;;;5097365;27;20229;-78
2022/11/17 09:58:47;;;;;;;9.90;8.13;;;4.00;99.90;;;;;;5105166;27;20225;-77
2022/11/17 10:01:17;;;;;;;11.30;8.17;;;4.10;99.90;;;;;;5108212;28;20305;-77
2022/11/17 10:03:46;;;;;;;9.13;8.03;;;4.10;99.90;;;;;;5105603;27;20301;-77
2022/11/17 10:06:19;;;;;;;10.13;8.17;;;4.10;99.90;;;;;;5105362;27;20298;-79
2022/11/17 10:08:57;;;;;;;10.67;8.30;;;4.10;99.90;;;;;;5108626;27;20564;-78
2022/11/17 10:11:31;;;;;;;10.63;8.40;;;4.20;99.90;;;;;;5102901;27;20249;-78
2022/11/17 10:13:59;;;;;;;10.33;7.87;;;4.20;99.90;;;;;;5104387;27;21196;-78
2022/11/17 10:16:25;;;;;;;9.37;8.03;;;4.20;99.90;;;;;;5100038;27;20570;-78
2022/11/17 10:18:52;;;;;;;9.80;8.53;;;4.20;99.90;;;;;;5099930;27;20228;-78
2022/11/17 10:21:20;;;;;;;10.67;8.33;;;4.20;99.90;;;;;;5094898;28;20219;-79
2022/11/17 10:23:56;;;;;;;8.83;7.53;;;4.20;99.90;;;;;;5099033;28;20225;-78
2022/11/17 10:26:23;;;;;;;10.30;8.33;;;4.20;99.90;;;;;;5099000;27;20222;-77
2022/11/17 10:29:04;;;;;;;10.00;8.70;;;4.30;99.90;;;;;;5105882;28;20226;-78
2022/11/17 10:31:40;;;;;;;11.33;8.43;;;4.30;99.90;;;;;;5100806;27;20230;-78
2022/11/17 10:34:10;;;;;;;10.90;8.73;;;4.20;99.90;;;;;;5104559;28;20217;-78
2022/11/17 10:36:45;;;;;;;10.10;8.90;;;4.30;99.90;;;;;;5104392;27;20296;-79
2022/11/17 10:39:35;;;;;;;11.10;9.10;;;4.30;99.90;;;;;;5105202;28;20225;-78
2022/11/17 10:42:12;;;;;;;11.47;8.90;;;4.30;99.90;;;;;;5101641;28;21470;-78
2022/11/17 10:44:41;;;;;;;10.23;8.70;;;4.30;99.90;;;;;;5100287;27;20217;-77
2022/11/17 10:47:27;;;;;;;9.90;8.90;;;4.40;99.90;;;;;;5106112;27;20226;-79
2022/11/17 10:50:20;;;;;;;12.00;9.00;;;4.30;99.90;;;;;;5093663;27;20787;-79
2022/11/17 10:52:48;;;;;;;11.37;8.60;;;4.30;99.90;;;;;;5089228;28;20878;-78
2022/11/17 10:55:25;;;;;;;11.67;9.00;;;4.30;99.90;;;;;;5080588;27;20253;-79
2022/11/17 10:57:56;;;;;;;10.53;9.00;;;4.40;99.90;;;;;;5094153;27;20948;-79
2022/11/17 11:00:28;;;;;;;11.57;9.27;;;4.30;99.90;;;;;;5093946;27;20230;-78
2022/11/17 11:03:15;;;;;;;12.00;9.10;;;4.40;99.90;;;;;;5096806;27;20246;-78
2022/11/17 11:05:55;;;;;;;9.70;8.70;;;4.30;99.90;;;;;;5084082;28;20225;-79
2022/11/17 11:08:25;;;;;;;11.57;9.23;;;4.40;99.90;;;;;;5094230;27;20309;-79
2022/11/17 11:10:53;;;;;;;11.37;9.70;;;4.40;99.90;;;;;;5095728;27;20222;-79
2022/11/17 11:13:25;;;;;;;10.77;9.20;;;4.30;99.90;;;;;;5091333;27;20309;-79
2022/11/17 11:15:53;;;;;;;10.37;8.93;;;4.40;99.90;;;;;;5100683;28;20223;-78
2022/11/17 11:18:20;;;;;;;10.40;8.60;;;4.40;99.90;;;;;;5101032;28;20227;-78
2022/11/17 11:20:56;;;;;;;10.23;8.60;;;4.40;99.90;;;;;;5098196;28;20235;-79
2022/11/17 11:23:35;;;;;;;10.73;8.30;;;4.40;99.90;;;;;;5096581;27;20262;-78
2022/11/17 11:26:16;;;;;;;10.90;8.47;;;4.40;99.90;;;;;;5106819;28;20210;-79
2022/11/17 11:28:55;;;;;;;12.30;9.37;;;4.40;99.90;;;;;;5107867;27;20321;-78
2022/11/17 11:31:31;;;;;;;12.73;8.90;;;4.40;99.90;;;;;;5093268;28;20831;-78
2022/11/17 11:34:06;;;;;;;12.17;9.53;;;4.40;99.90;;;;;;5102178;28;20895;-78
2022/11/17 11:36:37;;;;;;;11.73;9.80;;;4.40;99.90;;;;;;5093780;28;20307;-77
2022/11/17 11:39:12;;;;;;;12.10;9.47;;;4.30;99.90;;;;;;5108321;28;20214;-77
2022/11/17 11:42:15;;;;;;;10.70;9.37;;;4.20;99.90;;;;;;5107869;28;20311;-77
2022/11/17 11:44:57;;;;;;;13.80;9.57;;;4.20;99.90;;;;;;5090410;27;20646;-77
2022/11/17 11:47:40;;;;;;;12.53;9.63;;;4.20;99.90;;;;;;5078578;28;20226;-78
2022/11/17 11:50:13;;;;;;;15.73;9.33;;;4.10;99.90;;;;;;5097421;27;20586;-77
2022/11/17 11:52:46;;;;;;;10.83;9.13;;;4.10;99.90;;;;;;5101851;28;20248;-80
2022/11/17 11:55:21;;;;;;;10.87;9.17;;;4.00;99.90;;;;;;5107572;28;20217;-78
2022/11/17 11:57:54;;;;;;;10.67;8.87;;;4.00;99.90;;;;;;5102264;28;20694;-77
2022/11/17 12:00:21;;;;;;;9.57;8.40;;;4.00;99.90;;;;;;5107771;27;20233;-78
2022/11/17 12:02:52;;;;;;;11.43;9.37;;;3.90;99.90;;;;;;5104104;28;20229;-78
2022/11/17 12:05:26;;;;;;;9.97;8.60;;;3.90;99.90;;;;;;5101676;28;20275;-78
2022/11/17 12:07:58;;;;;;;11.53;9.37;;;3.90;99.90;;;;;;5105556;28;20249;-78
2022/11/17 12:10:31;;;;;;;11.83;9.30;;;3.90;99.90;;;;;;5102404;27;20218;-78
2022/11/17 12:12:59;;;;;;;11.13;9.13;;;3.80;99.90;;;;;;5095535;28;20975;-79
2022/11/17 12:15:34;;;;;;;11.93;10.00;;;3.80;99.90;;;;;;5101603;27;20226;-77
2022/11/17 12:18:04;;;;;;;12.17;9.53;;;3.80;99.90;;;;;;5095513;28;20209;-78
2022/11/17 12:20:54;;;;;;;14.53;10.63;;;3.70;99.90;;;;;;5086187;28;20229;-77
2022/11/17 12:23:57;;;;;;;12.37;9.70;;;3.70;99.90;;;;;;5098855;28;20279;-78
2022/11/17 12:26:28;;;;;;;13.73;9.97;;;3.70;99.90;;;;;;5103455;28;20240;-78
2022/11/17 12:29:24;;;;;;;12.07;9.83;;;3.60;99.90;;;;;;5095764;28;20222;-78
2022/11/17 12:31:52;;;;;;;13.07;10.00;;;3.60;99.90;;;;;;5095738;27;20300;-80
2022/11/17 12:34:23;;;;;;;13.43;10.40;;;3.60;99.90;;;;;;5105593;27;20738;-80
2022/11/17 12:37:15;;;;;;;13.43;11.00;;;3.60;99.90;;;;;;5099296;28;20305;-79
2022/11/17 12:39:56;;;;;;;13.33;10.67;;;3.60;99.90;;;;;;5092234;28;20264;-80
2022/11/17 12:42:25;;;;;;;14.47;11.27;;;3.60;99.90;;;;;;5095798;27;20706;-79
2022/11/17 12:44:59;;;;;;;13.93;10.97;;;3.60;99.90;;;;;;5104011;27;20221;-81
2022/11/17 12:47:28;;;;;;;13.80;11.00;;;3.60;99.90;;;;;;5091883;28;20619;-79
2022/11/17 12:50:17;;;;;;;13.83;11.00;;;3.60;99.90;;;;;;5102968;28;20226;-80
2022/11/17 12:52:56;;;;;;;15.03;11.70;;;3.60;99.90;;;;;;5102938;27;20220;-81
2022/11/17 12:55:46;;;;;;;15.20;10.83;;;3.60;99.90;;;;;;5099870;28;20226;-80
2022/11/17 12:58:22;;;;;;;14.90;11.03;;;3.70;99.90;;;;;;5107956;27;20596;-79
2022/11/17 13:01:00;;;;;;;14.23;10.73;;;3.60;99.90;;;;;;5102572;27;20229;-80
2022/11/17 13:03:37;;;;;;;15.20;11.60;;;3.60;99.90;;;;;;5103209;27;20341;-79
2022/11/17 13:06:07;;;;;;;17.47;11.80;;;3.70;99.90;;;;;;5108248;27;20217;-79
2022/11/17 13:08:34;;;;;;;15.00;11.40;;;3.70;99.90;;;;;;5106346;27;20219;-79
2022/11/17 13:11:06;;;;;;;15.13;11.30;;;3.70;99.90;;;;;;5103950;27;20241;-81
2022/11/17 13:13:34;;;;;;;15.87;12.30;;;3.70;99.90;;;;;;5101428;27;20248;-82
2022/11/17 13:16:01;;;;;;;16.80;11.80;;;3.70;99.90;;;;;;5106347;27;20244;-80
2022/11/17 13:18:35;;;;;;;15.00;11.60;;;3.60;99.90;;;;;;5119144;27;20220;-79
2022/11/17 13:21:02;;;;;;;15.43;11.13;;;3.70;99.90;;;;;;5104667;28;20210;-82
2022/11/17 13:23:30;;;;;;;14.17;11.40;;;3.70;99.90;;;;;;5089820;28;20225;-80
2022/11/17 13:26:17;;;;;;;16.67;11.47;;;3.60;99.90;;;;;;5102185;28;20242;-80
2022/11/17 13:28:46;;;;;;;13.80;10.83;;;3.60;99.90;;;;;;5102107;28;20225;-79
2022/11/17 13:31:22;;;;;;;15.07;11.83;;;3.60;99.90;;;;;;5101573;28;20228;-81
2022/11/17 13:33:59;;;;;;;15.33;11.33;;;3.60;99.90;;;;;;5102273;28;20254;-81
2022/11/17 13:36:26;;;;;;;15.40;10.90;;;3.50;99.90;;;;;;5108085;27;20225;-81